sim
Sign-in with your pilot id or email,
or register
Callsign
Passwort

Schedule Details

Flight Number: OEO8594
Departure: Frankfurt Airport (EDDF) at 13:55
Arrival: Bratislava M. R. Stefanik Airport (LZIB) at 15:25

Weather Information
Getting current METAR information for EDDF 232120Z 02008KT 9999 FEW017 12/11 Q1011 NOSIG
Getting current METAR information for LZIB 232100Z 05003KT CAVOK 13/10 Q1017

Schedule Frequency

Route Map